Williston, SC (29853)

6:51 AM EDT on September 26, 2016 (GMT -0400)
Loose Rock | | Change Station

Elev 309 ft 33.47 °N, 81.40 °W | Updated 9 seconds ago

Overcast
Overcast
69.2 °F
Feels Like 69.2 °F
N
0.0
Wind Variable Wind from ESE
Gusts 0.0 mph

Today
High -- | Low -- °F
--% Chance of Precip.
Yesterday
High -- | Low -- °F
Precip. -- in
Pressure 30.12 in
Visibility 1.0 miles
Clouds Overcast 100 ft
Dew Point 68 °F
Humidity 98%
Rainfall 0.00 in
Snow Depth Not available.
7:16 AM 7:16 PM
Waning Crescent, 20% visible
METAR KAIK 261035Z AUTO 06003KT 1SM BR OVC001 21/20 A3012 RMK AO2
Pressure 30.12 in
Visibility 1.0 miles
Clouds Overcast 100 ft
Dew Point 68 °F
Humidity 98%
Rainfall 0.00 in
Snow Depth Not available.
7:16 AM 7:16 PM
Waning Crescent, 20% visible
METAR KAIK 261035Z AUTO 06003KT 1SM BR OVC001 21/20 A3012 RMK AO2

10-Day Weather Forecast

Almanac

Astronomy

Sep. 26, 2016 Rise Set
Actual Time
Civil Twilight
Nautical Twilight
Astronomical Twilight
Moon
Length of Visible Light
Length of Day
Tomorrow will be .
, % of the Moon is Illuminated

Today's Extremes

State Highs State Lows

Community

WunderPhotos

Upload Photos

1,941,856 photos uploaded!

WunderBlog® & News

Nearby

Air Quality

  Air Quality AQ Index Pollutant
Not available.

Snow Depth

Station Depth Elevation

Earthquake Activity

City Distance Mag. Time & Date
Minimum magnitude displayed is 2.5.

Coastal Water Temperatures

Place Temperature

Stations

Nearby Weather Stations

Station Location Temp. Windchill Dew Point Humidity Wind Precip. Elev Updated Type
                   

Watches & Warnings

There are currently no watches in effect.